createdAt,value
2019-06-10T00:01:11.934Z,17.40
2019-06-10T00:03:15.869Z,17.40
2019-06-10T00:05:21.622Z,17.40
2019-06-10T00:07:25.484Z,17.40
2019-06-10T00:09:31.202Z,17.40
2019-06-10T00:11:35.425Z,17.40
2019-06-10T00:13:41.302Z,17.40
2019-06-10T00:15:45.236Z,17.40
2019-06-10T00:18:01.266Z,17.40
2019-06-10T00:19:54.824Z,17.40
2019-06-10T00:21:59.894Z,17.40
2019-06-10T00:24:05.673Z,17.40
2019-06-10T00:26:12.394Z,17.40
2019-06-10T00:28:16.152Z,17.40
2019-06-10T00:30:20.840Z,17.30
2019-06-10T00:32:24.965Z,17.40
2019-06-10T00:34:31.154Z,17.30
2019-06-10T00:36:34.596Z,17.30
2019-06-10T00:38:41.035Z,17.30
2019-06-10T00:40:44.333Z,17.20
2019-06-10T00:42:50.601Z,17.20
2019-06-10T00:44:54.075Z,17.30
2019-06-10T00:46:58.162Z,17.20
2019-06-10T00:49:05.591Z,17.20
2019-06-10T00:51:08.831Z,17.20
2019-06-10T00:53:14.542Z,17.20
2019-06-10T00:55:21.042Z,17.30
2019-06-10T00:57:24.452Z,17.20
2019-06-10T00:59:31.079Z,17.20
2019-06-10T01:01:34.533Z,17.20
2019-06-10T01:03:41.325Z,17.20
2019-06-10T01:05:44.483Z,17.20
2019-06-10T01:07:50.663Z,17.20
2019-06-10T01:09:54.046Z,17.20
2019-06-10T01:11:58.115Z,17.20
2019-06-10T01:14:03.081Z,17.20
2019-06-10T01:16:07.459Z,17.20
2019-06-10T01:18:28.791Z,17.20
2019-06-10T01:20:17.695Z,17.20
2019-06-10T01:22:21.595Z,17.20
2019-06-10T01:24:25.746Z,17.20
2019-06-10T01:26:31.008Z,17.20
2019-06-10T01:28:35.285Z,17.20
2019-06-10T01:30:41.224Z,17.20
2019-06-10T01:32:45.075Z,17.10
2019-06-10T01:34:50.828Z,17.10
2019-06-10T01:36:54.725Z,17.10
2019-06-10T01:38:58.654Z,17.10
2019-06-10T01:41:02.629Z,17.10
2019-06-10T01:43:06.665Z,17.10
2019-06-10T01:45:11.517Z,17.10
2019-06-10T01:47:17.417Z,17.10
2019-06-10T01:49:22.703Z,17.10
2019-06-10T01:51:26.805Z,17.10
2019-06-10T01:53:31.447Z,17.10
2019-06-10T01:55:35.905Z,17.10
2019-06-10T01:57:41.291Z,17.10
2019-06-10T01:59:45.545Z,17.10
2019-06-10T02:01:53.606Z,17.10
2019-06-10T02:03:57.605Z,17.10
2019-06-10T02:06:01.692Z,17.10
2019-06-10T02:08:05.885Z,17.10
2019-06-10T02:10:13.736Z,17.10
2019-06-10T02:12:17.584Z,17.00
2019-06-10T02:14:24.151Z,17.00
2019-06-10T02:16:26.844Z,17.00
2019-06-10T02:18:32.017Z,17.10
2019-06-10T02:20:36.406Z,17.10
2019-06-10T02:22:41.102Z,17.10
2019-06-10T02:24:45.585Z,17.10
2019-06-10T02:26:51.630Z,17.10
2019-06-10T02:28:55.315Z,17.00
2019-06-10T02:31:02.549Z,17.00
2019-06-10T02:33:05.165Z,17.00
2019-06-10T02:35:15.661Z,17.00
2019-06-10T02:37:19.213Z,17.00
2019-06-10T02:39:28.065Z,17.00
2019-06-10T02:41:31.976Z,17.00
2019-06-10T02:43:37.691Z,17.00
2019-06-10T02:45:39.639Z,17.00
2019-06-10T02:48:04.133Z,17.00
2019-06-10T02:50:09.931Z,17.00
2019-06-10T02:52:24.690Z,17.00
2019-06-10T02:54:31.509Z,17.00
2019-06-10T02:56:36.208Z,17.00
2019-06-10T02:58:39.796Z,16.90
2019-06-10T03:00:48.515Z,16.90
2019-06-10T03:02:52.935Z,16.90
2019-06-10T03:04:55.453Z,16.90
2019-06-10T03:06:59.635Z,16.90
2019-06-10T03:09:04.330Z,16.90
2019-06-10T03:11:08.365Z,16.90
2019-06-10T03:13:12.669Z,16.90
2019-06-10T03:15:17.877Z,16.90
2019-06-10T03:17:25.842Z,16.90
2019-06-10T03:19:42.271Z,16.90
2019-06-10T03:21:34.895Z,16.90
2019-06-10T03:23:38.856Z,16.90
2019-06-10T03:25:42.859Z,16.90
2019-06-10T03:27:46.845Z,16.90
2019-06-10T03:29:52.686Z,16.80
2019-06-10T03:31:56.748Z,16.80
2019-06-10T03:34:04.578Z,16.80
2019-06-10T03:36:06.733Z,16.80
2019-06-10T03:38:12.373Z,16.90
2019-06-10T03:40:16.576Z,16.80
2019-06-10T03:42:22.903Z,16.80
2019-06-10T03:44:27.117Z,16.80
2019-06-10T03:46:32.895Z,16.80
2019-06-10T03:48:37.087Z,16.80
2019-06-10T03:50:43.104Z,16.80
2019-06-10T03:52:46.903Z,16.80
2019-06-10T03:54:52.473Z,16.80
2019-06-10T03:56:56.564Z,16.80
2019-06-10T03:59:02.611Z,16.80
2019-06-10T04:01:06.215Z,16.80
2019-06-10T04:03:12.016Z,16.80
2019-06-10T04:05:15.806Z,16.80
2019-06-10T04:07:20.893Z,16.80
2019-06-10T04:09:27.083Z,16.80
2019-06-10T04:11:34.834Z,16.80
2019-06-10T04:13:37.177Z,16.80
2019-06-10T04:15:43.126Z,16.80
2019-06-10T04:17:46.897Z,16.80
2019-06-10T04:20:07.556Z,16.80
2019-06-10T04:21:56.686Z,16.80
2019-06-10T04:24:02.218Z,16.80
2019-06-10T04:26:06.593Z,16.80
2019-06-10T04:28:12.529Z,16.80
2019-06-10T04:30:16.766Z,16.80
2019-06-10T04:32:23.127Z,16.80
2019-06-10T04:34:30.154Z,16.80
2019-06-10T04:36:33.712Z,16.80
2019-06-10T04:38:37.745Z,16.80
2019-06-10T04:40:43.058Z,16.80
2019-06-10T04:42:47.125Z,16.80
2019-06-10T04:44:52.560Z,16.80
2019-06-10T04:46:56.725Z,16.80
2019-06-10T04:49:02.746Z,16.80
2019-06-10T04:51:06.605Z,16.80
2019-06-10T04:53:12.742Z,16.80
2019-06-10T04:55:16.693Z,16.80
2019-06-10T04:57:22.982Z,16.80
2019-06-10T04:59:28.728Z,16.80
2019-06-10T05:01:33.505Z,16.80
2019-06-10T05:03:37.755Z,16.80
2019-06-10T05:05:43.046Z,16.80
2019-06-10T05:07:47.606Z,16.80
2019-06-10T05:09:52.489Z,16.80
2019-06-10T05:11:56.727Z,16.80
2019-06-10T05:14:02.755Z,16.80
2019-06-10T05:16:07.127Z,16.80
2019-06-10T05:18:13.145Z,16.80
2019-06-10T05:20:19.650Z,16.80
2019-06-10T05:22:25.765Z,16.80
2019-06-10T05:24:33.552Z,16.80
2019-06-10T05:26:35.605Z,16.80
2019-06-10T05:28:39.675Z,16.80
2019-06-10T05:30:43.693Z,16.80
2019-06-10T05:32:47.585Z,16.80
2019-06-10T05:34:52.864Z,16.80
2019-06-10T05:36:57.135Z,16.80
2019-06-10T05:39:02.743Z,16.80
2019-06-10T05:41:06.811Z,16.80
2019-06-10T05:43:12.915Z,16.80
2019-06-10T05:45:16.413Z,16.80
2019-06-10T05:47:23.350Z,16.90
2019-06-10T05:49:27.407Z,16.90
2019-06-10T05:51:35.127Z,16.90
2019-06-10T05:53:37.705Z,16.90
2019-06-10T05:55:42.752Z,16.90
2019-06-10T05:57:46.968Z,16.90
2019-06-10T05:59:52.293Z,16.90
2019-06-10T06:01:56.386Z,16.90
2019-06-10T06:04:03.073Z,16.90
2019-06-10T06:06:06.155Z,16.90
2019-06-10T06:08:12.399Z,16.90
2019-06-10T06:10:15.810Z,16.90
2019-06-10T06:12:22.164Z,16.90
2019-06-10T06:14:25.646Z,16.90
2019-06-10T06:16:30.491Z,16.90
2019-06-10T06:18:36.474Z,16.90
2019-06-10T06:20:40.628Z,16.90
2019-06-10T06:22:44.595Z,16.90
2019-06-10T06:24:48.715Z,16.90
2019-06-10T06:26:53.433Z,16.90
2019-06-10T06:28:57.561Z,16.90
2019-06-10T06:31:03.327Z,16.90
2019-06-10T06:33:07.413Z,16.90
2019-06-10T06:35:12.618Z,16.90
2019-06-10T06:37:16.926Z,16.90
2019-06-10T06:39:21.113Z,16.90
2019-06-10T06:41:25.173Z,16.90
2019-06-10T06:43:32.807Z,16.90
2019-06-10T06:45:37.287Z,16.90
2019-06-10T06:47:43.510Z,16.90
2019-06-10T06:49:46.373Z,16.90
2019-06-10T06:51:56.222Z,16.90
2019-06-10T06:53:56.522Z,16.90
2019-06-10T06:56:03.003Z,16.90
2019-06-10T06:58:06.475Z,17.00
2019-06-10T07:00:35.233Z,17.00
2019-06-10T07:02:17.216Z,17.00
2019-06-10T07:04:23.425Z,17.00
2019-06-10T07:06:27.724Z,17.00
2019-06-10T07:08:36.191Z,17.00
2019-06-10T07:10:41.422Z,17.00
2019-06-10T07:12:48.165Z,17.00
2019-06-10T07:14:52.730Z,17.10
2019-06-10T07:16:56.985Z,17.10
2019-06-10T07:19:02.617Z,17.10
2019-06-10T07:21:06.886Z,17.10
2019-06-10T07:23:12.882Z,17.10
2019-06-10T07:25:16.706Z,17.10
2019-06-10T07:27:22.660Z,17.10
2019-06-10T07:29:26.485Z,17.20
2019-06-10T07:31:33.551Z,17.10
2019-06-10T07:33:37.865Z,17.10
2019-06-10T07:35:44.099Z,17.20
2019-06-10T07:37:47.384Z,17.20
2019-06-10T07:39:52.312Z,17.20
2019-06-10T07:41:56.939Z,17.20
2019-06-10T07:44:02.944Z,17.20
2019-06-10T07:46:06.694Z,17.20
2019-06-10T07:48:12.169Z,17.30
2019-06-10T07:50:16.674Z,17.30
2019-06-10T07:52:23.281Z,17.30
2019-06-10T07:54:26.513Z,17.40
2019-06-10T07:56:36.822Z,17.40
2019-06-10T07:58:37.175Z,17.40
2019-06-10T08:00:46.442Z,17.40
2019-06-10T08:02:47.603Z,17.40
2019-06-10T08:04:54.159Z,17.50
2019-06-10T08:06:57.509Z,17.50
2019-06-10T08:09:02.272Z,17.50
2019-06-10T08:11:06.685Z,17.50
2019-06-10T08:13:12.042Z,17.50
2019-06-10T08:15:16.387Z,17.60
2019-06-10T08:17:22.401Z,17.60
2019-06-10T08:19:34.937Z,17.60
2019-06-10T08:21:32.293Z,17.60
2019-06-10T08:23:37.459Z,17.60
2019-06-10T08:25:46.813Z,17.70
2019-06-10T08:27:49.260Z,17.70
2019-06-10T08:30:13.746Z,17.70
2019-06-10T08:31:59.213Z,17.70
2019-06-10T08:34:03.336Z,17.70
2019-06-10T08:36:07.375Z,17.70
2019-06-10T08:38:12.397Z,17.80
2019-06-10T08:40:16.643Z,17.80
2019-06-10T08:42:23.066Z,17.80
2019-06-10T08:44:26.395Z,17.90
2019-06-10T08:46:32.744Z,17.90
2019-06-10T08:48:36.991Z,17.90
2019-06-10T08:50:41.920Z,17.80
2019-06-10T08:53:03.685Z,17.90
2019-06-10T08:54:54.386Z,17.90
2019-06-10T08:56:58.031Z,17.90
2019-06-10T08:59:03.223Z,17.90
2019-06-10T09:01:07.665Z,17.90
2019-06-10T09:03:12.598Z,18.00
2019-06-10T09:05:19.334Z,18.00
2019-06-10T09:07:23.937Z,18.10
2019-06-10T09:09:28.138Z,18.10
2019-06-10T09:11:32.890Z,18.00
2019-06-10T09:13:38.107Z,18.10
2019-06-10T09:15:45.012Z,18.10
2019-06-10T09:17:50.010Z,18.10
2019-06-10T09:19:54.160Z,18.10
2019-06-10T09:21:58.678Z,18.20
2019-06-10T09:24:03.853Z,18.20
2019-06-10T09:26:08.146Z,18.20
2019-06-10T09:28:12.816Z,18.20
2019-06-10T09:30:17.673Z,18.30
2019-06-10T09:32:23.021Z,18.30
2019-06-10T09:34:27.409Z,18.30
2019-06-10T09:36:32.528Z,18.30
2019-06-10T09:38:36.733Z,18.30
2019-06-10T09:41:00.719Z,18.40
2019-06-10T09:42:58.405Z,18.40
2019-06-10T09:45:02.835Z,18.40
2019-06-10T09:47:06.785Z,18.40
2019-06-10T09:49:12.773Z,18.40
2019-06-10T09:51:16.935Z,18.40
2019-06-10T09:53:33.466Z,18.40
2019-06-10T09:55:29.595Z,18.40
2019-06-10T09:57:33.863Z,18.50
2019-06-10T09:59:37.806Z,18.50
2019-06-10T10:01:47.295Z,18.50
2019-06-10T10:03:52.081Z,18.50
2019-06-10T10:06:07.254Z,18.50
2019-06-10T10:07:58.615Z,18.60
2019-06-10T10:10:05.065Z,18.60
2019-06-10T10:12:09.235Z,18.50
2019-06-10T10:14:16.062Z,18.60
2019-06-10T10:16:18.966Z,18.50
2019-06-10T10:18:23.585Z,18.60
2019-06-10T10:20:27.713Z,18.50
2019-06-10T10:22:33.622Z,18.50
2019-06-10T10:24:37.385Z,18.50
2019-06-10T10:26:43.344Z,18.50
2019-06-10T10:28:48.832Z,18.60
2019-06-10T10:30:57.586Z,18.60
2019-06-10T10:32:58.616Z,18.60
2019-06-10T10:35:03.935Z,18.70
2019-06-10T10:37:08.036Z,18.70
2019-06-10T10:39:13.870Z,18.70
2019-06-10T10:41:17.765Z,18.80
2019-06-10T10:43:29.098Z,18.80
2019-06-10T10:45:27.364Z,18.90
2019-06-10T10:47:33.573Z,18.90
2019-06-10T10:49:37.175Z,18.90
2019-06-10T10:51:41.245Z,19.00
2019-06-10T10:53:50.552Z,19.00
2019-06-10T10:55:51.888Z,19.00
2019-06-10T10:57:56.043Z,19.00
2019-06-10T11:00:00.053Z,19.10
2019-06-10T11:02:04.015Z,19.10
2019-06-10T11:04:08.777Z,19.20
2019-06-10T11:06:13.261Z,19.20
2019-06-10T11:08:17.405Z,19.30
2019-06-10T11:10:23.648Z,19.20
2019-06-10T11:12:28.397Z,19.30
2019-06-10T11:14:33.535Z,19.30
2019-06-10T11:16:38.165Z,19.30
2019-06-10T11:18:42.454Z,19.50
2019-06-10T11:20:47.368Z,19.50
2019-06-10T11:22:51.602Z,19.70
2019-06-10T11:24:57.620Z,19.70
2019-06-10T11:27:03.123Z,19.70
2019-06-10T11:29:07.263Z,19.60
2019-06-10T11:31:13.804Z,19.60
2019-06-10T11:33:17.147Z,19.60
2019-06-10T11:35:21.733Z,19.70
2019-06-10T11:37:25.825Z,19.80
2019-06-10T11:39:30.025Z,19.70
2019-06-10T11:41:34.173Z,19.70
2019-06-10T11:43:38.339Z,19.90
2019-06-10T11:45:47.729Z,19.80
2019-06-10T11:47:49.345Z,19.90
2019-06-10T11:49:55.088Z,19.90
2019-06-10T11:51:59.693Z,19.80
2019-06-10T11:54:03.816Z,19.80
2019-06-10T11:56:07.933Z,19.80
2019-06-10T11:58:11.943Z,19.80
2019-06-10T12:00:17.385Z,20.00
2019-06-10T12:02:22.833Z,19.90
2019-06-10T12:04:27.045Z,19.90
2019-06-10T12:06:33.367Z,19.90
2019-06-10T12:08:36.788Z,19.90
2019-06-10T12:10:43.236Z,20.00
2019-06-10T12:12:46.565Z,20.00
2019-06-10T12:14:53.905Z,20.00
2019-06-10T12:19:03.610Z,20.10
2019-06-10T12:21:07.817Z,20.10
2019-06-10T12:23:12.718Z,20.10
2019-06-10T12:25:31.547Z,20.10
2019-06-10T12:27:23.495Z,20.10
2019-06-10T12:29:27.525Z,20.10
2019-06-10T12:31:33.717Z,20.10
2019-06-10T12:33:37.204Z,20.10
2019-06-10T12:35:42.294Z,20.10
2019-06-10T12:37:46.556Z,20.10
2019-06-10T12:39:52.964Z,20.20
2019-06-10T12:41:57.983Z,20.40
2019-06-10T12:44:03.290Z,20.30
2019-06-10T12:46:07.773Z,20.30
2019-06-10T12:48:13.355Z,20.30
2019-06-10T12:50:17.725Z,20.40
2019-06-10T12:52:22.962Z,20.30
2019-06-10T12:54:27.115Z,20.40
2019-06-10T12:56:32.809Z,20.30
2019-06-10T12:58:37.085Z,20.30
2019-06-10T13:00:46.626Z,20.30
2019-06-10T13:02:53.003Z,20.30
2019-06-10T13:04:57.572Z,20.30
2019-06-10T13:07:05.210Z,20.30
2019-06-10T13:09:08.096Z,20.30
2019-06-10T13:11:15.068Z,20.30
2019-06-10T13:13:19.155Z,20.30
2019-06-10T13:15:23.235Z,20.30
2019-06-10T13:17:27.273Z,20.40
2019-06-10T13:19:34.321Z,20.40
2019-06-10T13:21:36.945Z,20.40
2019-06-10T13:23:43.253Z,20.40
2019-06-10T13:25:54.344Z,20.40
2019-06-10T13:27:52.235Z,20.40
2019-06-10T13:29:56.391Z,20.40
2019-06-10T13:32:02.822Z,20.50
2019-06-10T13:34:11.115Z,20.40
2019-06-10T13:36:12.678Z,20.50
2019-06-10T13:38:18.013Z,20.50
2019-06-10T13:40:22.715Z,20.50
2019-06-10T13:42:26.868Z,20.50
2019-06-10T13:44:32.193Z,20.60
2019-06-10T13:46:36.455Z,20.60
2019-06-10T13:48:42.880Z,20.60
2019-06-10T13:50:46.105Z,20.70
2019-06-10T13:52:52.164Z,20.70
2019-06-10T13:54:56.075Z,20.70
2019-06-10T13:57:01.501Z,20.80
2019-06-10T13:59:08.090Z,20.70
2019-06-10T14:01:19.754Z,20.80
2019-06-10T14:03:16.985Z,20.80
2019-06-10T14:05:22.584Z,20.80
2019-06-10T14:07:27.015Z,20.90
2019-06-10T14:09:32.886Z,20.90
2019-06-10T14:11:36.626Z,20.90
2019-06-10T14:13:43.126Z,20.80
2019-06-10T14:15:46.245Z,20.80
2019-06-10T14:17:52.600Z,20.80
2019-06-10T14:19:56.125Z,20.80
2019-06-10T14:22:02.126Z,20.80
2019-06-10T14:24:06.169Z,20.80
2019-06-10T14:26:12.631Z,20.80
2019-06-10T14:28:34.938Z,20.80
2019-06-10T14:30:23.060Z,20.80
2019-06-10T14:32:27.365Z,20.80
2019-06-10T14:34:32.596Z,20.80
2019-06-10T14:36:36.785Z,20.90
2019-06-10T14:38:42.092Z,20.90
2019-06-10T14:40:46.273Z,20.90
2019-06-10T14:42:52.351Z,20.90
2019-06-10T14:44:56.015Z,20.90
2019-06-10T14:47:00.145Z,20.90
2019-06-10T14:49:04.696Z,20.90
2019-06-10T14:51:08.940Z,20.90
2019-06-10T14:53:14.175Z,20.90
2019-06-10T14:55:18.778Z,20.90
2019-06-10T14:57:23.002Z,20.90
2019-06-10T14:59:27.046Z,20.90
2019-06-10T15:01:32.205Z,20.90
2019-06-10T15:03:36.405Z,20.90
2019-06-10T15:05:43.161Z,20.90
2019-06-10T15:07:46.007Z,20.90
2019-06-10T15:09:52.495Z,20.90
2019-06-10T15:11:55.764Z,20.90
2019-06-10T15:13:59.715Z,20.90
2019-06-10T15:16:04.375Z,21.00
2019-06-10T15:18:09.346Z,21.00
2019-06-10T15:20:13.726Z,21.00
2019-06-10T15:22:17.845Z,21.00
2019-06-10T15:24:23.729Z,21.00
2019-06-10T15:26:27.532Z,21.00
2019-06-10T15:28:31.605Z,21.00
2019-06-10T15:30:35.565Z,21.00
2019-06-10T15:32:42.296Z,21.00
2019-06-10T15:34:45.285Z,21.10
2019-06-10T15:36:49.395Z,21.00
2019-06-10T15:38:53.363Z,21.00
2019-06-10T15:40:57.558Z,21.00
2019-06-10T15:43:23.407Z,21.00
2019-06-10T15:45:28.008Z,21.10
2019-06-10T15:47:47.712Z,21.20
2019-06-10T15:50:28.593Z,21.20
2019-06-10T15:52:32.876Z,21.30
2019-06-10T15:54:37.326Z,21.30
2019-06-10T15:56:51.948Z,21.50
2019-06-10T15:58:46.876Z,21.40
2019-06-10T16:00:53.255Z,21.50
2019-06-10T16:02:56.476Z,21.40
2019-06-10T16:05:00.418Z,21.50
2019-06-10T16:07:04.426Z,21.40
2019-06-10T16:09:08.786Z,21.40
2019-06-10T16:11:15.246Z,21.50
2019-06-10T16:13:18.604Z,21.40
2019-06-10T16:15:24.814Z,21.40
2019-06-10T16:17:30.181Z,21.40
2019-06-10T16:19:34.357Z,21.40
2019-06-10T16:21:38.298Z,21.30
2019-06-10T16:23:43.004Z,21.20
2019-06-10T16:25:47.264Z,21.10
2019-06-10T16:27:54.269Z,21.10
2019-06-10T16:29:57.126Z,21.00
2019-06-10T16:32:02.505Z,21.00
2019-06-10T16:34:06.826Z,21.00
2019-06-10T16:36:12.263Z,20.90
2019-06-10T16:38:16.989Z,21.00
2019-06-10T16:40:21.824Z,20.90
2019-06-10T16:42:27.557Z,20.90
2019-06-10T16:44:32.950Z,20.90
2019-06-10T16:46:37.357Z,20.90
2019-06-10T16:48:43.414Z,20.80
2019-06-10T16:50:47.210Z,20.80
2019-06-10T16:52:53.662Z,20.80
2019-06-10T16:54:56.946Z,20.70
2019-06-10T16:57:03.832Z,20.70
2019-06-10T16:59:06.619Z,20.70
2019-06-10T17:01:12.395Z,20.70
2019-06-10T17:03:16.376Z,20.60
2019-06-10T17:05:21.262Z,20.60
2019-06-10T17:07:26.907Z,20.60
2019-06-10T17:09:32.804Z,20.60
2019-06-10T17:11:36.766Z,20.50
2019-06-10T17:13:42.247Z,20.60
2019-06-10T17:15:46.594Z,20.50
2019-06-10T17:17:52.150Z,20.50
2019-06-10T17:19:56.215Z,20.50
2019-06-10T17:22:00.388Z,20.50
2019-06-10T17:24:04.436Z,20.50
2019-06-10T17:26:08.396Z,20.50
2019-06-10T17:28:18.318Z,20.50
2019-06-10T17:30:19.512Z,20.50
2019-06-10T17:32:25.000Z,20.50
2019-06-10T17:34:29.732Z,20.50
2019-06-10T17:36:35.564Z,20.40
2019-06-10T17:38:39.615Z,20.40
2019-06-10T17:40:43.726Z,20.40
2019-06-10T17:42:47.686Z,20.40
2019-06-10T17:44:52.945Z,20.40
2019-06-10T17:46:57.097Z,20.30
2019-06-10T17:49:02.615Z,20.30
2019-06-10T17:51:06.826Z,20.30
2019-06-10T17:53:12.721Z,20.30
2019-06-10T17:55:16.617Z,20.40
2019-06-10T17:57:23.094Z,20.30
2019-06-10T17:59:26.800Z,20.30
2019-06-10T18:01:33.379Z,20.30
2019-06-10T18:03:39.762Z,20.30
2019-06-10T18:05:42.637Z,20.30
2019-06-10T18:07:46.621Z,20.30
2019-06-10T18:09:52.844Z,20.30
2019-06-10T18:11:56.376Z,20.30
2019-06-10T18:14:02.530Z,20.20
2019-06-10T18:16:05.849Z,20.30
2019-06-10T18:18:09.818Z,20.20
2019-06-10T18:20:14.674Z,20.20
2019-06-10T18:22:18.632Z,20.20
2019-06-10T18:24:24.387Z,20.20
2019-06-10T18:26:28.973Z,20.20
2019-06-10T18:28:45.553Z,20.20
2019-06-10T18:30:38.824Z,20.20
2019-06-10T18:32:43.032Z,20.20
2019-06-10T18:34:47.136Z,20.20
2019-06-10T18:36:52.132Z,20.10
2019-06-10T18:38:56.177Z,20.20
2019-06-10T18:41:02.974Z,20.10
2019-06-10T18:43:06.318Z,20.20
2019-06-10T18:45:12.964Z,20.20
2019-06-10T18:47:17.134Z,20.10
2019-06-10T18:49:22.700Z,20.10
2019-06-10T18:51:27.198Z,20.10
2019-06-10T18:53:33.547Z,20.10
2019-06-10T18:55:39.397Z,20.10
2019-06-10T18:57:42.703Z,20.10
2019-06-10T18:59:46.790Z,20.10
2019-06-10T19:01:52.719Z,20.10
2019-06-10T19:03:56.415Z,20.10
2019-06-10T19:06:00.494Z,20.00
2019-06-10T19:08:04.636Z,20.00
2019-06-10T19:10:09.786Z,20.00
2019-06-10T19:12:13.856Z,20.00
2019-06-10T19:14:17.974Z,20.00
2019-06-10T19:16:23.459Z,20.00
2019-06-10T19:18:27.456Z,19.90
2019-06-10T19:20:36.405Z,19.80
2019-06-10T19:22:37.904Z,19.60
2019-06-10T19:24:44.740Z,19.40
2019-06-10T19:26:48.496Z,19.30
2019-06-10T19:28:53.383Z,19.30
2019-06-10T19:30:57.783Z,19.30
2019-06-10T19:33:02.531Z,19.20
2019-06-10T19:35:07.180Z,19.20
2019-06-10T19:37:12.900Z,19.20
2019-06-10T19:39:17.023Z,19.20
2019-06-10T19:41:22.360Z,19.10
2019-06-10T19:43:26.486Z,19.00
2019-06-10T19:45:32.082Z,19.00
2019-06-10T19:47:37.590Z,18.90
2019-06-10T19:49:43.605Z,18.90
2019-06-10T19:51:47.744Z,18.90
2019-06-10T19:53:52.754Z,19.00
2019-06-10T19:55:56.946Z,19.10
2019-06-10T19:58:03.737Z,19.10
2019-06-10T20:00:12.344Z,19.20
2019-06-10T20:02:14.824Z,19.20
2019-06-10T20:04:18.966Z,19.20
2019-06-10T20:06:22.947Z,19.20
2019-06-10T20:08:27.006Z,19.30
2019-06-10T20:10:32.389Z,19.40
2019-06-10T20:12:36.686Z,19.40
2019-06-10T20:14:41.196Z,19.40
2019-06-10T20:16:46.321Z,19.50
2019-06-10T20:18:50.289Z,19.50
2019-06-10T20:20:54.274Z,19.50
2019-06-10T20:22:58.496Z,19.60
2019-06-10T20:25:03.774Z,19.60
2019-06-10T20:27:08.056Z,19.50
2019-06-10T20:29:12.624Z,19.50
2019-06-10T20:31:16.637Z,19.50
2019-06-10T20:33:33.845Z,19.50
2019-06-10T20:35:37.473Z,19.50
2019-06-10T20:37:44.243Z,19.40
2019-06-10T20:39:47.800Z,19.50
2019-06-10T20:41:55.007Z,19.40
2019-06-10T20:43:57.717Z,19.40
2019-06-10T20:46:02.970Z,19.30
2019-06-10T20:48:07.624Z,19.40
2019-06-10T20:50:13.101Z,19.40
2019-06-10T20:52:17.210Z,19.40
2019-06-10T20:54:23.242Z,19.40
2019-06-10T20:56:26.848Z,19.30
2019-06-10T20:58:32.952Z,19.20
2019-06-10T21:00:45.677Z,19.20
2019-06-10T21:02:45.837Z,19.30
2019-06-10T21:04:50.059Z,19.10
2019-06-10T21:06:54.737Z,19.00
2019-06-10T21:08:59.994Z,19.10
2019-06-10T21:11:03.914Z,19.10
2019-06-10T21:13:08.562Z,19.10
2019-06-10T21:15:12.639Z,19.10
2019-06-10T21:17:16.826Z,19.20
2019-06-10T21:19:23.079Z,19.20
2019-06-10T21:21:26.606Z,19.20
2019-06-10T21:23:30.576Z,19.20
2019-06-10T21:25:34.757Z,19.10
2019-06-10T21:27:38.816Z,19.20
2019-06-10T21:29:43.981Z,19.20
2019-06-10T21:31:49.932Z,19.20
2019-06-10T21:33:55.789Z,19.00
2019-06-10T21:36:00.116Z,18.90
2019-06-10T21:38:04.431Z,18.80
2019-06-10T21:40:08.567Z,18.60
2019-06-10T21:42:12.626Z,18.70
2019-06-10T21:44:16.724Z,18.90
2019-06-10T21:46:22.692Z,18.90
2019-06-10T21:48:26.412Z,18.70
2019-06-10T21:50:33.020Z,18.90
2019-06-10T21:52:36.154Z,18.70
2019-06-10T21:54:42.154Z,18.60
2019-06-10T21:56:47.100Z,18.60
2019-06-10T21:58:53.663Z,18.50
2019-06-10T22:01:09.678Z,18.60
2019-06-10T22:03:03.066Z,18.60
2019-06-10T22:05:07.692Z,18.60
2019-06-10T22:07:11.894Z,18.60
2019-06-10T22:09:16.026Z,18.50
2019-06-10T22:11:20.095Z,18.60
2019-06-10T22:13:24.135Z,18.60
2019-06-10T22:15:28.307Z,18.60
2019-06-10T22:17:32.363Z,18.70
2019-06-10T22:19:36.526Z,18.60
2019-06-10T22:21:42.969Z,18.50
2019-06-10T22:23:46.685Z,18.60
2019-06-10T22:25:53.191Z,18.60
2019-06-10T22:27:56.416Z,18.60
2019-06-10T22:30:04.148Z,18.60
2019-06-10T22:32:06.176Z,18.50
2019-06-10T22:34:12.486Z,18.40
2019-06-10T22:36:16.087Z,18.40
2019-06-10T22:38:22.052Z,18.40
2019-06-10T22:40:25.811Z,18.40
2019-06-10T22:42:29.896Z,18.40
2019-06-10T22:44:33.902Z,18.40
2019-06-10T22:46:38.097Z,18.40
2019-06-10T22:48:42.570Z,18.40
2019-06-10T22:50:46.962Z,18.50
2019-06-10T22:52:54.073Z,18.40
2019-06-10T22:54:58.549Z,18.50
2019-06-10T22:57:02.979Z,18.50
2019-06-10T22:59:07.284Z,18.50
2019-06-10T23:01:12.459Z,18.50
2019-06-10T23:03:16.524Z,18.30
2019-06-10T23:05:23.260Z,18.20
2019-06-10T23:07:27.746Z,18.10
2019-06-10T23:09:31.836Z,18.10
2019-06-10T23:11:35.864Z,18.10
2019-06-10T23:13:42.312Z,18.10
2019-06-10T23:15:45.516Z,18.20
2019-06-10T23:17:51.590Z,18.30
2019-06-10T23:19:56.865Z,18.30
2019-06-10T23:22:02.897Z,18.40
2019-06-10T23:24:07.426Z,18.40
2019-06-10T23:26:13.086Z,18.30
2019-06-10T23:28:17.316Z,18.20
2019-06-10T23:30:22.352Z,18.20
2019-06-10T23:32:26.664Z,18.10
2019-06-10T23:34:32.904Z,18.10
2019-06-10T23:36:36.456Z,18.10
2019-06-10T23:38:43.065Z,18.10
2019-06-10T23:40:46.215Z,18.20
2019-06-10T23:42:50.802Z,18.30
2019-06-10T23:44:55.163Z,18.30
2019-06-10T23:46:59.437Z,18.30
2019-06-10T23:49:04.668Z,18.30
2019-06-10T23:51:08.786Z,18.40
2019-06-10T23:53:13.285Z,18.40
2019-06-10T23:55:17.696Z,18.40
2019-06-10T23:57:22.359Z,18.40
2019-06-10T23:59:26.516Z,18.50
